sensor_id;sensor_type;location;lat;lon;timestamp;P1;durP1;ratioP1;P2;durP2;ratioP2
39188;SDS011;24915;50.858;4.376;2023-06-10T00:02:16;7.63;;;6.40;;
39188;SDS011;24915;50.858;4.376;2023-06-10T00:04:42;10.30;;;6.25;;
39188;SDS011;24915;50.858;4.376;2023-06-10T00:07:08;8.93;;;6.05;;
39188;SDS011;24915;50.858;4.376;2023-06-10T00:09:35;10.25;;;6.13;;
39188;SDS011;24915;50.858;4.376;2023-06-10T00:12:05;10.32;;;6.95;;
39188;SDS011;24915;50.858;4.376;2023-06-10T00:14:32;11.82;;;6.50;;
39188;SDS011;24915;50.858;4.376;2023-06-10T00:16:58;7.75;;;6.78;;
39188;SDS011;24915;50.858;4.376;2023-06-10T00:19:24;10.00;;;6.65;;
39188;SDS011;24915;50.858;4.376;2023-06-10T00:21:50;10.57;;;6.50;;
39188;SDS011;24915;50.858;4.376;2023-06-10T00:24:17;11.32;;;6.65;;
39188;SDS011;24915;50.858;4.376;2023-06-10T00:26:44;10.85;;;6.90;;
39188;SDS011;24915;50.858;4.376;2023-06-10T00:29:10;8.52;;;5.93;;
39188;SDS011;24915;50.858;4.376;2023-06-10T00:31:37;9.32;;;6.35;;
39188;SDS011;24915;50.858;4.376;2023-06-10T00:34:03;12.10;;;7.20;;
39188;SDS011;24915;50.858;4.376;2023-06-10T00:36:29;7.03;;;6.28;;
39188;SDS011;24915;50.858;4.376;2023-06-10T00:38:56;10.35;;;6.65;;
39188;SDS011;24915;50.858;4.376;2023-06-10T00:41:22;8.50;;;6.22;;
39188;SDS011;24915;50.858;4.376;2023-06-10T00:43:48;10.68;;;6.15;;
39188;SDS011;24915;50.858;4.376;2023-06-10T00:46:14;7.72;;;6.65;;
39188;SDS011;24915;50.858;4.376;2023-06-10T00:48:42;11.23;;;6.43;;
39188;SDS011;24915;50.858;4.376;2023-06-10T00:51:09;7.63;;;6.78;;
39188;SDS011;24915;50.858;4.376;2023-06-10T00:53:36;9.32;;;6.75;;
39188;SDS011;24915;50.858;4.376;2023-06-10T00:56:03;8.02;;;6.53;;
39188;SDS011;24915;50.858;4.376;2023-06-10T00:58:29;8.35;;;6.32;;
39188;SDS011;24915;50.858;4.376;2023-06-10T01:00:56;13.52;;;6.93;;
39188;SDS011;24915;50.858;4.376;2023-06-10T01:03:22;10.55;;;6.72;;
39188;SDS011;24915;50.858;4.376;2023-06-10T01:05:50;12.88;;;7.10;;
39188;SDS011;24915;50.858;4.376;2023-06-10T01:08:27;9.98;;;6.53;;
39188;SDS011;24915;50.858;4.376;2023-06-10T01:11:00;12.82;;;7.18;;
39188;SDS011;24915;50.858;4.376;2023-06-10T01:13:27;9.65;;;6.57;;
39188;SDS011;24915;50.858;4.376;2023-06-10T01:15:54;14.23;;;7.18;;
39188;SDS011;24915;50.858;4.376;2023-06-10T01:18:20;10.05;;;7.20;;
39188;SDS011;24915;50.858;4.376;2023-06-10T01:20:47;6.97;;;6.38;;
39188;SDS011;24915;50.858;4.376;2023-06-10T01:23:14;8.25;;;7.25;;
39188;SDS011;24915;50.858;4.376;2023-06-10T01:25:41;7.10;;;6.35;;
39188;SDS011;24915;50.858;4.376;2023-06-10T01:28:10;8.18;;;6.53;;
39188;SDS011;24915;50.858;4.376;2023-06-10T01:33:25;9.75;;;6.90;;
39188;SDS011;24915;50.858;4.376;2023-06-10T01:35:53;7.65;;;6.65;;
39188;SDS011;24915;50.858;4.376;2023-06-10T01:38:19;7.82;;;6.80;;
39188;SDS011;24915;50.858;4.376;2023-06-10T01:40:46;10.32;;;6.90;;
39188;SDS011;24915;50.858;4.376;2023-06-10T01:43:13;13.23;;;6.65;;
39188;SDS011;24915;50.858;4.376;2023-06-10T01:45:39;7.25;;;6.55;;
39188;SDS011;24915;50.858;4.376;2023-06-10T01:48:06;10.35;;;6.70;;
39188;SDS011;24915;50.858;4.376;2023-06-10T01:50:32;7.53;;;6.68;;
39188;SDS011;24915;50.858;4.376;2023-06-10T01:52:59;11.18;;;7.55;;
39188;SDS011;24915;50.858;4.376;2023-06-10T01:55:25;15.07;;;6.55;;
39188;SDS011;24915;50.858;4.376;2023-06-10T01:57:51;7.68;;;6.95;;
39188;SDS011;24915;50.858;4.376;2023-06-10T02:00:17;11.63;;;6.95;;
39188;SDS011;24915;50.858;4.376;2023-06-10T02:02:43;10.65;;;6.60;;
39188;SDS011;24915;50.858;4.376;2023-06-10T02:05:09;11.55;;;7.15;;
39188;SDS011;24915;50.858;4.376;2023-06-10T02:07:35;10.60;;;7.72;;
39188;SDS011;24915;50.858;4.376;2023-06-10T02:10:03;10.00;;;7.07;;
39188;SDS011;24915;50.858;4.376;2023-06-10T02:12:29;11.35;;;7.45;;
39188;SDS011;24915;50.858;4.376;2023-06-10T02:14:55;8.20;;;6.78;;
39188;SDS011;24915;50.858;4.376;2023-06-10T02:17:21;9.93;;;7.45;;
39188;SDS011;24915;50.858;4.376;2023-06-10T02:19:48;9.98;;;7.45;;
39188;SDS011;24915;50.858;4.376;2023-06-10T02:22:21;7.43;;;6.60;;
39188;SDS011;24915;50.858;4.376;2023-06-10T02:24:47;11.05;;;6.60;;
39188;SDS011;24915;50.858;4.376;2023-06-10T02:27:14;7.60;;;6.90;;
39188;SDS011;24915;50.858;4.376;2023-06-10T02:29:40;13.52;;;7.63;;
39188;SDS011;24915;50.858;4.376;2023-06-10T02:32:07;8.20;;;6.88;;
39188;SDS011;24915;50.858;4.376;2023-06-10T02:34:33;10.93;;;7.55;;
39188;SDS011;24915;50.858;4.376;2023-06-10T02:36:59;9.70;;;7.05;;
39188;SDS011;24915;50.858;4.376;2023-06-10T02:39:26;10.68;;;7.70;;
39188;SDS011;24915;50.858;4.376;2023-06-10T02:41:52;10.88;;;7.47;;
39188;SDS011;24915;50.858;4.376;2023-06-10T02:44:18;8.98;;;7.25;;
39188;SDS011;24915;50.858;4.376;2023-06-10T02:46:44;12.40;;;6.80;;
39188;SDS011;24915;50.858;4.376;2023-06-10T02:49:11;9.75;;;7.78;;
39188;SDS011;24915;50.858;4.376;2023-06-10T02:51:37;9.50;;;7.80;;
39188;SDS011;24915;50.858;4.376;2023-06-10T02:54:03;10.70;;;7.30;;
39188;SDS011;24915;50.858;4.376;2023-06-10T02:56:29;10.05;;;7.45;;
39188;SDS011;24915;50.858;4.376;2023-06-10T02:58:56;10.73;;;7.18;;
39188;SDS011;24915;50.858;4.376;2023-06-10T03:01:23;9.90;;;7.95;;
39188;SDS011;24915;50.858;4.376;2023-06-10T03:03:49;10.70;;;8.02;;
39188;SDS011;24915;50.858;4.376;2023-06-10T03:06:15;9.27;;;7.30;;
39188;SDS011;24915;50.858;4.376;2023-06-10T03:08:42;11.90;;;8.20;;
39188;SDS011;24915;50.858;4.376;2023-06-10T03:11:08;8.38;;;7.57;;
39188;SDS011;24915;50.858;4.376;2023-06-10T03:13:35;16.05;;;7.85;;
39188;SDS011;24915;50.858;4.376;2023-06-10T03:16:01;14.00;;;8.20;;
39188;SDS011;24915;50.858;4.376;2023-06-10T03:18:28;10.13;;;8.23;;
39188;SDS011;24915;50.858;4.376;2023-06-10T03:20:54;8.38;;;7.10;;
39188;SDS011;24915;50.858;4.376;2023-06-10T03:23:21;8.68;;;7.80;;
39188;SDS011;24915;50.858;4.376;2023-06-10T03:25:47;9.77;;;7.75;;
39188;SDS011;24915;50.858;4.376;2023-06-10T03:28:13;17.42;;;7.97;;
39188;SDS011;24915;50.858;4.376;2023-06-10T03:30:39;10.77;;;8.32;;
39188;SDS011;24915;50.858;4.376;2023-06-10T03:33:05;10.65;;;7.72;;
39188;SDS011;24915;50.858;4.376;2023-06-10T03:35:31;10.80;;;8.10;;
39188;SDS011;24915;50.858;4.376;2023-06-10T03:37:58;9.50;;;8.00;;
39188;SDS011;24915;50.858;4.376;2023-06-10T03:40:24;10.75;;;8.43;;
39188;SDS011;24915;50.858;4.376;2023-06-10T03:42:50;9.68;;;8.00;;
39188;SDS011;24915;50.858;4.376;2023-06-10T03:45:16;11.90;;;8.10;;
39188;SDS011;24915;50.858;4.376;2023-06-10T03:47:42;16.70;;;8.27;;
39188;SDS011;24915;50.858;4.376;2023-06-10T03:50:09;11.88;;;7.88;;
39188;SDS011;24915;50.858;4.376;2023-06-10T03:52:35;11.45;;;8.32;;
39188;SDS011;24915;50.858;4.376;2023-06-10T03:55:02;10.75;;;8.38;;
39188;SDS011;24915;50.858;4.376;2023-06-10T03:57:28;8.48;;;7.68;;
39188;SDS011;24915;50.858;4.376;2023-06-10T03:59:54;11.63;;;8.70;;
39188;SDS011;24915;50.858;4.376;2023-06-10T04:02:21;10.98;;;8.63;;
39188;SDS011;24915;50.858;4.376;2023-06-10T04:04:47;10.75;;;8.48;;
39188;SDS011;24915;50.858;4.376;2023-06-10T04:07:14;14.10;;;8.60;;
39188;SDS011;24915;50.858;4.376;2023-06-10T04:09:40;10.38;;;7.78;;
39188;SDS011;24915;50.858;4.376;2023-06-10T04:12:06;9.93;;;7.97;;
39188;SDS011;24915;50.858;4.376;2023-06-10T04:14:34;14.15;;;8.65;;
39188;SDS011;24915;50.858;4.376;2023-06-10T04:17:02;9.57;;;7.72;;
39188;SDS011;24915;50.858;4.376;2023-06-10T04:19:31;14.07;;;8.63;;
39188;SDS011;24915;50.858;4.376;2023-06-10T04:21:57;11.10;;;8.75;;
39188;SDS011;24915;50.858;4.376;2023-06-10T04:24:23;10.63;;;8.35;;
39188;SDS011;24915;50.858;4.376;2023-06-10T04:26:50;11.60;;;8.27;;
39188;SDS011;24915;50.858;4.376;2023-06-10T04:29:16;11.63;;;7.97;;
39188;SDS011;24915;50.858;4.376;2023-06-10T04:31:42;12.10;;;8.73;;
39188;SDS011;24915;50.858;4.376;2023-06-10T04:34:08;10.18;;;8.73;;
39188;SDS011;24915;50.858;4.376;2023-06-10T04:36:34;14.50;;;8.80;;
39188;SDS011;24915;50.858;4.376;2023-06-10T04:39:00;12.82;;;9.13;;
39188;SDS011;24915;50.858;4.376;2023-06-10T04:41:26;11.05;;;9.00;;
39188;SDS011;24915;50.858;4.376;2023-06-10T04:43:53;14.05;;;8.88;;
39188;SDS011;24915;50.858;4.376;2023-06-10T04:46:19;11.27;;;8.20;;
39188;SDS011;24915;50.858;4.376;2023-06-10T04:48:45;12.48;;;8.80;;
39188;SDS011;24915;50.858;4.376;2023-06-10T04:51:12;12.90;;;8.63;;
39188;SDS011;24915;50.858;4.376;2023-06-10T04:53:39;14.38;;;8.65;;
39188;SDS011;24915;50.858;4.376;2023-06-10T04:56:05;9.90;;;8.88;;
39188;SDS011;24915;50.858;4.376;2023-06-10T04:58:32;11.38;;;8.45;;
39188;SDS011;24915;50.858;4.376;2023-06-10T05:00:58;11.18;;;8.32;;
39188;SDS011;24915;50.858;4.376;2023-06-10T05:03:25;15.80;;;8.85;;
39188;SDS011;24915;50.858;4.376;2023-06-10T05:05:51;14.30;;;9.55;;
39188;SDS011;24915;50.858;4.376;2023-06-10T05:08:17;17.33;;;9.30;;
39188;SDS011;24915;50.858;4.376;2023-06-10T05:10:43;17.88;;;9.10;;
39188;SDS011;24915;50.858;4.376;2023-06-10T05:13:09;13.55;;;8.52;;
39188;SDS011;24915;50.858;4.376;2023-06-10T05:15:35;14.35;;;8.90;;
39188;SDS011;24915;50.858;4.376;2023-06-10T05:18:02;11.52;;;8.07;;
39188;SDS011;24915;50.858;4.376;2023-06-10T05:20:28;10.60;;;8.90;;
39188;SDS011;24915;50.858;4.376;2023-06-10T05:22:54;10.85;;;8.63;;
39188;SDS011;24915;50.858;4.376;2023-06-10T05:25:20;13.65;;;8.43;;
39188;SDS011;24915;50.858;4.376;2023-06-10T05:27:48;11.52;;;8.88;;
39188;SDS011;24915;50.858;4.376;2023-06-10T05:30:14;12.75;;;8.35;;
39188;SDS011;24915;50.858;4.376;2023-06-10T05:32:41;9.43;;;8.02;;
39188;SDS011;24915;50.858;4.376;2023-06-10T05:35:07;11.38;;;7.88;;
39188;SDS011;24915;50.858;4.376;2023-06-10T05:37:34;14.05;;;8.60;;
39188;SDS011;24915;50.858;4.376;2023-06-10T05:40:02;10.13;;;8.88;;
39188;SDS011;24915;50.858;4.376;2023-06-10T05:42:29;12.90;;;8.98;;
39188;SDS011;24915;50.858;4.376;2023-06-10T05:44:55;11.23;;;8.57;;
39188;SDS011;24915;50.858;4.376;2023-06-10T05:47:21;18.52;;;8.48;;
39188;SDS011;24915;50.858;4.376;2023-06-10T05:49:47;14.52;;;8.63;;
39188;SDS011;24915;50.858;4.376;2023-06-10T05:52:15;13.50;;;8.43;;
39188;SDS011;24915;50.858;4.376;2023-06-10T05:54:41;13.73;;;8.15;;
39188;SDS011;24915;50.858;4.376;2023-06-10T05:57:07;13.43;;;7.80;;
39188;SDS011;24915;50.858;4.376;2023-06-10T05:59:33;9.82;;;8.05;;
39188;SDS011;24915;50.858;4.376;2023-06-10T06:01:59;9.05;;;8.15;;
39188;SDS011;24915;50.858;4.376;2023-06-10T06:04:25;10.02;;;8.13;;
39188;SDS011;24915;50.858;4.376;2023-06-10T06:06:51;11.63;;;8.32;;
39188;SDS011;24915;50.858;4.376;2023-06-10T06:09:17;14.55;;;8.18;;
39188;SDS011;24915;50.858;4.376;2023-06-10T06:11:43;9.95;;;7.72;;
39188;SDS011;24915;50.858;4.376;2023-06-10T06:14:09;10.18;;;8.05;;
39188;SDS011;24915;50.858;4.376;2023-06-10T06:16:35;14.25;;;7.80;;
39188;SDS011;24915;50.858;4.376;2023-06-10T06:19:01;11.98;;;7.93;;
39188;SDS011;24915;50.858;4.376;2023-06-10T06:21:27;13.13;;;7.65;;
39188;SDS011;24915;50.858;4.376;2023-06-10T06:23:53;19.17;;;8.15;;
39188;SDS011;24915;50.858;4.376;2023-06-10T06:26:19;9.63;;;8.27;;
39188;SDS011;24915;50.858;4.376;2023-06-10T06:28:45;11.88;;;7.63;;
39188;SDS011;24915;50.858;4.376;2023-06-10T06:31:11;14.95;;;7.63;;
39188;SDS011;24915;50.858;4.376;2023-06-10T06:33:37;8.48;;;7.05;;
39188;SDS011;24915;50.858;4.376;2023-06-10T06:36:03;9.90;;;8.02;;
39188;SDS011;24915;50.858;4.376;2023-06-10T06:38:30;9.32;;;7.20;;
39188;SDS011;24915;50.858;4.376;2023-06-10T06:40:56;8.48;;;7.05;;
39188;SDS011;24915;50.858;4.376;2023-06-10T06:43:22;11.05;;;7.82;;
39188;SDS011;24915;50.858;4.376;2023-06-10T06:45:48;18.90;;;7.80;;
39188;SDS011;24915;50.858;4.376;2023-06-10T06:48:14;9.48;;;7.38;;
39188;SDS011;24915;50.858;4.376;2023-06-10T06:50:40;9.02;;;7.40;;
39188;SDS011;24915;50.858;4.376;2023-06-10T06:53:07;11.90;;;7.25;;
39188;SDS011;24915;50.858;4.376;2023-06-10T06:55:33;9.82;;;7.28;;
39188;SDS011;24915;50.858;4.376;2023-06-10T06:57:59;15.40;;;7.70;;
39188;SDS011;24915;50.858;4.376;2023-06-10T07:00:27;20.10;;;8.07;;
39188;SDS011;24915;50.858;4.376;2023-06-10T07:02:53;8.82;;;6.85;;
39188;SDS011;24915;50.858;4.376;2023-06-10T07:05:20;14.88;;;7.57;;
39188;SDS011;24915;50.858;4.376;2023-06-10T07:07:46;13.20;;;7.30;;
39188;SDS011;24915;50.858;4.376;2023-06-10T07:10:12;10.45;;;7.10;;
39188;SDS011;24915;50.858;4.376;2023-06-10T07:12:39;10.68;;;7.68;;
39188;SDS011;24915;50.858;4.376;2023-06-10T07:15:05;7.55;;;6.72;;
39188;SDS011;24915;50.858;4.376;2023-06-10T07:17:32;15.18;;;6.90;;
39188;SDS011;24915;50.858;4.376;2023-06-10T07:19:59;11.45;;;6.53;;
39188;SDS011;24915;50.858;4.376;2023-06-10T07:22:25;13.18;;;6.57;;
39188;SDS011;24915;50.858;4.376;2023-06-10T07:24:51;9.30;;;6.55;;
39188;SDS011;24915;50.858;4.376;2023-06-10T07:27:19;6.63;;;5.93;;
39188;SDS011;24915;50.858;4.376;2023-06-10T07:29:45;7.13;;;6.45;;
39188;SDS011;24915;50.858;4.376;2023-06-10T07:32:12;8.93;;;6.60;;
39188;SDS011;24915;50.858;4.376;2023-06-10T07:34:38;9.35;;;6.70;;
39188;SDS011;24915;50.858;4.376;2023-06-10T07:37:04;8.07;;;6.65;;
39188;SDS011;24915;50.858;4.376;2023-06-10T07:39:30;11.90;;;7.20;;
39188;SDS011;24915;50.858;4.376;2023-06-10T07:41:56;11.05;;;6.22;;
39188;SDS011;24915;50.858;4.376;2023-06-10T07:44:22;8.82;;;6.63;;
39188;SDS011;24915;50.858;4.376;2023-06-10T07:46:48;50.83;;;8.70;;
39188;SDS011;24915;50.858;4.376;2023-06-10T07:49:15;7.82;;;6.05;;
39188;SDS011;24915;50.858;4.376;2023-06-10T07:51:41;14.40;;;6.40;;
39188;SDS011;24915;50.858;4.376;2023-06-10T07:54:07;42.95;;;8.30;;
39188;SDS011;24915;50.858;4.376;2023-06-10T07:56:33;55.13;;;8.50;;
39188;SDS011;24915;50.858;4.376;2023-06-10T07:58:59;25.70;;;6.97;;
39188;SDS011;24915;50.858;4.376;2023-06-10T08:01:25;11.88;;;5.93;;
39188;SDS011;24915;50.858;4.376;2023-06-10T08:03:51;19.90;;;6.88;;
39188;SDS011;24915;50.858;4.376;2023-06-10T08:06:17;8.85;;;6.05;;
39188;SDS011;24915;50.858;4.376;2023-06-10T08:08:43;12.57;;;6.15;;
39188;SDS011;24915;50.858;4.376;2023-06-10T08:11:10;7.63;;;6.07;;
39188;SDS011;24915;50.858;4.376;2023-06-10T08:13:37;82.53;;;10.90;;
39188;SDS011;24915;50.858;4.376;2023-06-10T08:16:03;19.98;;;6.65;;
39188;SDS011;24915;50.858;4.376;2023-06-10T08:18:29;15.65;;;5.55;;
39188;SDS011;24915;50.858;4.376;2023-06-10T08:20:56;10.07;;;6.05;;
39188;SDS011;24915;50.858;4.376;2023-06-10T08:23:22;8.13;;;6.15;;
39188;SDS011;24915;50.858;4.376;2023-06-10T08:25:48;10.90;;;6.10;;
39188;SDS011;24915;50.858;4.376;2023-06-10T08:28:14;9.27;;;5.85;;
39188;SDS011;24915;50.858;4.376;2023-06-10T08:30:40;7.50;;;5.70;;
39188;SDS011;24915;50.858;4.376;2023-06-10T08:33:06;9.13;;;5.28;;
39188;SDS011;24915;50.858;4.376;2023-06-10T08:35:32;8.57;;;5.40;;
39188;SDS011;24915;50.858;4.376;2023-06-10T08:37:58;8.10;;;5.45;;
39188;SDS011;24915;50.858;4.376;2023-06-10T08:40:24;6.15;;;5.57;;
39188;SDS011;24915;50.858;4.376;2023-06-10T08:45:26;8.80;;;5.40;;
39188;SDS011;24915;50.858;4.376;2023-06-10T08:47:53;7.57;;;5.15;;
39188;SDS011;24915;50.858;4.376;2023-06-10T08:50:22;7.78;;;5.18;;
39188;SDS011;24915;50.858;4.376;2023-06-10T08:52:50;6.25;;;5.15;;
39188;SDS011;24915;50.858;4.376;2023-06-10T08:55:50;9.40;;;5.45;;
39188;SDS011;24915;50.858;4.376;2023-06-10T08:58:08;7.35;;;5.10;;
39188;SDS011;24915;50.858;4.376;2023-06-10T09:00:35;7.07;;;5.25;;
39188;SDS011;24915;50.858;4.376;2023-06-10T09:03:04;9.30;;;5.32;;
39188;SDS011;24915;50.858;4.376;2023-06-10T09:05:34;9.18;;;4.78;;
39188;SDS011;24915;50.858;4.376;2023-06-10T09:08:04;5.97;;;4.90;;
39188;SDS011;24915;50.858;4.376;2023-06-10T09:10:32;9.23;;;5.18;;
39188;SDS011;24915;50.858;4.376;2023-06-10T09:12:58;7.07;;;4.28;;
39188;SDS011;24915;50.858;4.376;2023-06-10T09:15:24;8.70;;;4.88;;
39188;SDS011;24915;50.858;4.376;2023-06-10T09:17:50;6.55;;;4.22;;
39188;SDS011;24915;50.858;4.376;2023-06-10T09:20:16;6.22;;;4.95;;
39188;SDS011;24915;50.858;4.376;2023-06-10T09:22:42;9.40;;;4.65;;
39188;SDS011;24915;50.858;4.376;2023-06-10T09:25:10;10.30;;;5.20;;
39188;SDS011;24915;50.858;4.376;2023-06-10T09:27:46;6.07;;;4.70;;
39188;SDS011;24915;50.858;4.376;2023-06-10T09:30:24;9.55;;;5.47;;
39188;SDS011;24915;50.858;4.376;2023-06-10T09:32:54;7.55;;;5.03;;
39188;SDS011;24915;50.858;4.376;2023-06-10T09:35:23;15.52;;;4.85;;
39188;SDS011;24915;50.858;4.376;2023-06-10T09:37:51;6.68;;;4.57;;
39188;SDS011;24915;50.858;4.376;2023-06-10T09:40:17;7.13;;;4.80;;
39188;SDS011;24915;50.858;4.376;2023-06-10T09:42:43;9.15;;;4.78;;
39188;SDS011;24915;50.858;4.376;2023-06-10T09:45:09;4.93;;;4.53;;
39188;SDS011;24915;50.858;4.376;2023-06-10T09:47:35;8.38;;;4.93;;
39188;SDS011;24915;50.858;4.376;2023-06-10T09:50:01;7.38;;;5.07;;
39188;SDS011;24915;50.858;4.376;2023-06-10T09:52:28;6.60;;;4.72;;
39188;SDS011;24915;50.858;4.376;2023-06-10T09:54:59;7.88;;;4.57;;
39188;SDS011;24915;50.858;4.376;2023-06-10T09:57:25;5.70;;;4.25;;
39188;SDS011;24915;50.858;4.376;2023-06-10T09:59:54;7.18;;;4.60;;
39188;SDS011;24915;50.858;4.376;2023-06-10T10:02:21;15.88;;;5.28;;
39188;SDS011;24915;50.858;4.376;2023-06-10T10:04:47;6.63;;;5.03;;
39188;SDS011;24915;50.858;4.376;2023-06-10T10:07:13;40.08;;;6.93;;
39188;SDS011;24915;50.858;4.376;2023-06-10T10:09:40;5.85;;;4.15;;
39188;SDS011;24915;50.858;4.376;2023-06-10T10:12:09;10.25;;;4.53;;
39188;SDS011;24915;50.858;4.376;2023-06-10T10:14:36;6.00;;;4.22;;
39188;SDS011;24915;50.858;4.376;2023-06-10T10:17:04;6.28;;;4.70;;
39188;SDS011;24915;50.858;4.376;2023-06-10T10:19:32;10.05;;;4.30;;
39188;SDS011;24915;50.858;4.376;2023-06-10T10:22:01;6.35;;;4.40;;
39188;SDS011;24915;50.858;4.376;2023-06-10T10:24:33;7.88;;;5.00;;
39188;SDS011;24915;50.858;4.376;2023-06-10T10:27:03;6.53;;;4.10;;
39188;SDS011;24915;50.858;4.376;2023-06-10T10:29:33;10.40;;;4.38;;
39188;SDS011;24915;50.858;4.376;2023-06-10T10:32:02;4.70;;;4.20;;
39188;SDS011;24915;50.858;4.376;2023-06-10T10:34:30;4.70;;;4.28;;
39188;SDS011;24915;50.858;4.376;2023-06-10T10:36:58;6.13;;;4.50;;
39188;SDS011;24915;50.858;4.376;2023-06-10T10:39:24;5.15;;;4.60;;
39188;SDS011;24915;50.858;4.376;2023-06-10T10:41:53;10.05;;;4.60;;
39188;SDS011;24915;50.858;4.376;2023-06-10T10:44:19;7.28;;;5.00;;
39188;SDS011;24915;50.858;4.376;2023-06-10T10:46:49;5.72;;;4.43;;
39188;SDS011;24915;50.858;4.376;2023-06-10T10:49:16;6.35;;;4.50;;
39188;SDS011;24915;50.858;4.376;2023-06-10T10:51:55;10.20;;;4.55;;
39188;SDS011;24915;50.858;4.376;2023-06-10T10:54:32;4.47;;;4.10;;
39188;SDS011;24915;50.858;4.376;2023-06-10T10:57:14;8.35;;;4.38;;
39188;SDS011;24915;50.858;4.376;2023-06-10T11:02:10;6.60;;;4.35;;
39188;SDS011;24915;50.858;4.376;2023-06-10T11:04:36;5.60;;;3.78;;
39188;SDS011;24915;50.858;4.376;2023-06-10T11:07:05;4.53;;;4.13;;
39188;SDS011;24915;50.858;4.376;2023-06-10T11:09:32;4.13;;;3.83;;
39188;SDS011;24915;50.858;4.376;2023-06-10T11:11:58;4.25;;;3.88;;
39188;SDS011;24915;50.858;4.376;2023-06-10T11:14:28;6.28;;;4.28;;
39188;SDS011;24915;50.858;4.376;2023-06-10T11:16:57;4.15;;;3.50;;
39188;SDS011;24915;50.858;4.376;2023-06-10T11:19:33;3.90;;;3.53;;
39188;SDS011;24915;50.858;4.376;2023-06-10T11:22:00;8.15;;;3.65;;
39188;SDS011;24915;50.858;4.376;2023-06-10T11:24:27;4.13;;;3.72;;
39188;SDS011;24915;50.858;4.376;2023-06-10T11:26:54;7.13;;;3.90;;
39188;SDS011;24915;50.858;4.376;2023-06-10T11:29:20;4.32;;;3.60;;
39188;SDS011;24915;50.858;4.376;2023-06-10T11:31:49;7.50;;;4.47;;
39188;SDS011;24915;50.858;4.376;2023-06-10T11:34:20;7.53;;;4.47;;
39188;SDS011;24915;50.858;4.376;2023-06-10T11:36:48;4.60;;;4.15;;
39188;SDS011;24915;50.858;4.376;2023-06-10T11:39:14;11.07;;;4.45;;
39188;SDS011;24915;50.858;4.376;2023-06-10T11:41:40;4.95;;;4.43;;
39188;SDS011;24915;50.858;4.376;2023-06-10T11:44:08;8.35;;;4.00;;
39188;SDS011;24915;50.858;4.376;2023-06-10T11:46:34;4.68;;;4.28;;
39188;SDS011;24915;50.858;4.376;2023-06-10T11:49:01;7.72;;;4.07;;
39188;SDS011;24915;50.858;4.376;2023-06-10T11:51:28;10.10;;;3.97;;
39188;SDS011;24915;50.858;4.376;2023-06-10T11:53:55;5.57;;;3.92;;
39188;SDS011;24915;50.858;4.376;2023-06-10T11:56:21;6.38;;;4.50;;
39188;SDS011;24915;50.858;4.376;2023-06-10T11:58:52;6.15;;;3.90;;
39188;SDS011;24915;50.858;4.376;2023-06-10T12:01:21;4.95;;;4.10;;
39188;SDS011;24915;50.858;4.376;2023-06-10T12:03:50;6.40;;;4.35;;
39188;SDS011;24915;50.858;4.376;2023-06-10T12:06:22;4.40;;;4.00;;
39188;SDS011;24915;50.858;4.376;2023-06-10T12:08:48;7.88;;;4.68;;
39188;SDS011;24915;50.858;4.376;2023-06-10T12:11:14;7.07;;;4.10;;
39188;SDS011;24915;50.858;4.376;2023-06-10T12:13:45;5.95;;;4.32;;
39188;SDS011;24915;50.858;4.376;2023-06-10T12:16:13;7.28;;;4.28;;
39188;SDS011;24915;50.858;4.376;2023-06-10T12:18:39;8.85;;;4.63;;
39188;SDS011;24915;50.858;4.376;2023-06-10T12:21:23;6.93;;;4.30;;
39188;SDS011;24915;50.858;4.376;2023-06-10T12:26:37;6.30;;;4.53;;
39188;SDS011;24915;50.858;4.376;2023-06-10T12:29:15;6.95;;;4.95;;
39188;SDS011;24915;50.858;4.376;2023-06-10T12:31:54;8.35;;;4.40;;
39188;SDS011;24915;50.858;4.376;2023-06-10T12:34:27;4.55;;;4.00;;
39188;SDS011;24915;50.858;4.376;2023-06-10T12:36:53;7.53;;;4.82;;
39188;SDS011;24915;50.858;4.376;2023-06-10T12:39:19;6.35;;;4.25;;
39188;SDS011;24915;50.858;4.376;2023-06-10T12:41:49;8.90;;;5.07;;
39188;SDS011;24915;50.858;4.376;2023-06-10T12:44:16;7.88;;;4.28;;
39188;SDS011;24915;50.858;4.376;2023-06-10T12:46:42;6.05;;;3.92;;
39188;SDS011;24915;50.858;4.376;2023-06-10T12:49:18;7.82;;;4.82;;
39188;SDS011;24915;50.858;4.376;2023-06-10T12:51:44;9.05;;;4.32;;
39188;SDS011;24915;50.858;4.376;2023-06-10T12:54:11;4.88;;;4.25;;
39188;SDS011;24915;50.858;4.376;2023-06-10T12:56:37;7.10;;;4.07;;
39188;SDS011;24915;50.858;4.376;2023-06-10T12:59:03;5.38;;;4.35;;
39188;SDS011;24915;50.858;4.376;2023-06-10T13:01:29;7.15;;;4.25;;
39188;SDS011;24915;50.858;4.376;2023-06-10T13:03:56;10.60;;;4.85;;
39188;SDS011;24915;50.858;4.376;2023-06-10T13:06:22;6.75;;;4.13;;
39188;SDS011;24915;50.858;4.376;2023-06-10T13:08:48;5.03;;;4.55;;
39188;SDS011;24915;50.858;4.376;2023-06-10T13:11:15;6.28;;;4.43;;
39188;SDS011;24915;50.858;4.376;2023-06-10T13:13:42;8.32;;;4.60;;
39188;SDS011;24915;50.858;4.376;2023-06-10T13:16:08;9.98;;;4.78;;
39188;SDS011;24915;50.858;4.376;2023-06-10T13:18:34;10.15;;;4.47;;
39188;SDS011;24915;50.858;4.376;2023-06-10T13:21:05;14.27;;;4.40;;
39188;SDS011;24915;50.858;4.376;2023-06-10T13:23:31;6.30;;;4.45;;
39188;SDS011;24915;50.858;4.376;2023-06-10T13:25:57;10.80;;;5.03;;
39188;SDS011;24915;50.858;4.376;2023-06-10T13:28:23;5.68;;;4.60;;
39188;SDS011;24915;50.858;4.376;2023-06-10T13:30:50;9.00;;;4.50;;
39188;SDS011;24915;50.858;4.376;2023-06-10T13:33:16;7.00;;;4.63;;
39188;SDS011;24915;50.858;4.376;2023-06-10T13:35:42;8.18;;;4.53;;
39188;SDS011;24915;50.858;4.376;2023-06-10T13:38:08;6.13;;;4.60;;
39188;SDS011;24915;50.858;4.376;2023-06-10T13:40:34;9.60;;;4.60;;
39188;SDS011;24915;50.858;4.376;2023-06-10T13:43:00;6.28;;;4.43;;
39188;SDS011;24915;50.858;4.376;2023-06-10T13:45:27;6.28;;;4.57;;
39188;SDS011;24915;50.858;4.376;2023-06-10T13:47:53;10.15;;;4.90;;
39188;SDS011;24915;50.858;4.376;2023-06-10T13:50:19;5.47;;;4.10;;
39188;SDS011;24915;50.858;4.376;2023-06-10T13:52:45;5.95;;;4.68;;
39188;SDS011;24915;50.858;4.376;2023-06-10T13:55:11;5.50;;;4.43;;
39188;SDS011;24915;50.858;4.376;2023-06-10T13:57:37;8.75;;;4.45;;
39188;SDS011;24915;50.858;4.376;2023-06-10T14:00:04;8.95;;;4.68;;
39188;SDS011;24915;50.858;4.376;2023-06-10T14:02:30;8.77;;;4.10;;
39188;SDS011;24915;50.858;4.376;2023-06-10T14:04:56;6.68;;;4.70;;
39188;SDS011;24915;50.858;4.376;2023-06-10T14:07:23;5.93;;;4.63;;
39188;SDS011;24915;50.858;4.376;2023-06-10T14:09:51;13.35;;;5.07;;
39188;SDS011;24915;50.858;4.376;2023-06-10T14:12:17;5.55;;;4.30;;
39188;SDS011;24915;50.858;4.376;2023-06-10T14:14:43;8.05;;;4.72;;
39188;SDS011;24915;50.858;4.376;2023-06-10T14:17:09;5.20;;;4.20;;
39188;SDS011;24915;50.858;4.376;2023-06-10T14:19:35;7.65;;;4.80;;
39188;SDS011;24915;50.858;4.376;2023-06-10T14:22:01;7.78;;;4.25;;
39188;SDS011;24915;50.858;4.376;2023-06-10T14:24:27;6.57;;;4.25;;
39188;SDS011;24915;50.858;4.376;2023-06-10T14:26:53;8.73;;;4.53;;
39188;SDS011;24915;50.858;4.376;2023-06-10T14:29:20;8.80;;;4.57;;
39188;SDS011;24915;50.858;4.376;2023-06-10T14:31:47;6.88;;;4.97;;
39188;SDS011;24915;50.858;4.376;2023-06-10T14:34:13;6.32;;;4.15;;
39188;SDS011;24915;50.858;4.376;2023-06-10T14:36:39;7.80;;;4.40;;
39188;SDS011;24915;50.858;4.376;2023-06-10T14:39:05;8.48;;;4.88;;
39188;SDS011;24915;50.858;4.376;2023-06-10T14:41:31;6.93;;;4.78;;
39188;SDS011;24915;50.858;4.376;2023-06-10T14:43:57;7.10;;;5.03;;
39188;SDS011;24915;50.858;4.376;2023-06-10T14:46:23;6.82;;;4.60;;
39188;SDS011;24915;50.858;4.376;2023-06-10T14:48:49;6.57;;;5.25;;
39188;SDS011;24915;50.858;4.376;2023-06-10T14:51:16;9.52;;;4.93;;
39188;SDS011;24915;50.858;4.376;2023-06-10T14:53:42;9.63;;;4.78;;